Time;durP1;ratioP1;P1;durP2;ratioP2;P2;SDS_P1;SDS_P2;PMS_P1;PMS_P2;Temp;Humidity;BMP_temperature;BMP_pressure;BME280_temperature;BME280_humidity;BME280_pressure;Samples;Min_cycle;Max_cycle;Signal;HPM_P1;HPM_P2
2022/07/17 00:00:55;;;;;;;3.80;1.08;;;;;;;13.32;84.85;101158.16;2030251;29;20127;-68
2022/07/17 00:02:02;;;;;;;2.65;1.10;;;;;;;13.35;84.68;101157.59;2007960;29;20213;-68
2022/07/17 00:03:05;;;;;;;2.67;0.90;;;;;;;13.34;84.63;101155.97;2014375;29;20048;-65
2022/07/17 00:04:07;;;;;;;3.85;1.08;;;;;;;13.36;84.55;101153.78;2022479;29;20071;-64
2022/07/17 00:05:11;;;;;;;3.25;1.02;;;;;;;13.33;84.23;101158.94;2023325;29;20052;-65
2022/07/17 00:06:16;;;;;;;3.95;1.00;;;;;;;13.35;84.47;101162.19;2023110;29;20045;-65
2022/07/17 00:07:18;;;;;;;1.65;0.90;;;;;;;13.33;84.52;101159.75;2023287;29;20049;-65
2022/07/17 00:08:23;;;;;;;2.22;1.05;;;;;;;13.34;84.57;101155.97;2015614;29;20421;-65
2022/07/17 00:09:25;;;;;;;2.47;0.93;;;;;;;13.33;84.36;101154.34;2015718;29;20053;-66
2022/07/17 00:10:31;;;;;;;3.65;1.23;;;;;;;13.33;84.66;101154.34;2027249;29;20063;-65
2022/07/17 00:11:35;;;;;;;4.28;1.60;;;;;;;13.34;84.62;101153.28;2030893;29;20052;-65
2022/07/17 00:12:43;;;;;;;2.85;0.95;;;;;;;13.32;84.63;101151.94;2030511;29;20067;-65
2022/07/17 00:13:51;;;;;;;1.95;0.82;;;;;;;13.30;84.47;101152.22;2030674;29;20060;-65
2022/07/17 00:14:59;;;;;;;2.15;0.93;;;;;;;13.33;84.48;101153.53;2022966;29;20044;-67
2022/07/17 00:16:01;;;;;;;1.63;1.00;;;;;;;13.30;84.48;101152.22;2015994;29;20053;-65
2022/07/17 00:17:05;;;;;;;1.73;0.90;;;;;;;13.30;84.42;101152.22;2022423;29;20060;-65
2022/07/17 00:18:08;;;;;;;3.30;0.77;;;;;;;13.32;84.51;101151.94;2022893;29;20060;-65
2022/07/17 00:19:15;;;;;;;2.78;0.90;;;;;;;13.32;84.47;101150.03;2027074;29;20052;-65
2022/07/17 00:20:20;;;;;;;3.83;0.98;;;;;;;13.35;84.71;101157.59;2030373;29;20056;-68
2022/07/17 00:21:25;;;;;;;2.22;1.27;;;;;;;13.32;84.88;101152.75;2031628;29;20051;-68
2022/07/17 00:22:28;;;;;;;2.13;0.90;;;;;;;13.32;84.68;101157.34;2030137;29;20064;-66
2022/07/17 00:23:29;;;;;;;2.00;0.80;;;;;;;13.35;84.85;101165.69;2015448;29;20041;-66
2022/07/17 00:24:33;;;;;;;1.50;1.00;;;;;;;13.37;84.90;101154.63;2015489;29;20068;-65
2022/07/17 00:25:35;;;;;;;1.33;0.90;;;;;;;13.35;85.03;101156.78;2028287;29;20194;-65
2022/07/17 00:26:38;;;;;;;2.88;1.17;;;;;;;13.36;85.03;101155.69;2037993;29;20103;-65
2022/07/17 00:27:40;;;;;;;5.05;1.00;;;;;;;13.37;85.07;101154.63;2037922;29;20419;-66
2022/07/17 00:28:43;;;;;;;3.70;1.20;;;;;;;13.38;85.20;101156.22;2023168;29;20060;-66
2022/07/17 00:29:46;;;;;;;2.13;1.10;;;;;;;13.40;85.05;101156.75;2022997;29;20444;-68
2022/07/17 00:30:55;;;;;;;1.38;0.80;;;;;;;13.40;85.10;101151.34;2031490;29;20052;-65
2022/07/17 00:32:01;;;;;;;3.45;0.90;;;;;;;13.42;85.05;101158.06;2031336;29;20096;-68
2022/07/17 00:33:09;;;;;;;4.90;0.90;;;;;;;13.41;84.98;101153.75;2038516;29;20046;-68
2022/07/17 00:34:14;;;;;;;4.95;1.20;;;;;;;13.41;85.06;101156.47;2031196;29;20071;-68
2022/07/17 00:35:18;;;;;;;2.20;0.77;;;;;;;13.38;84.98;101150.81;2015921;29;20047;-68
2022/07/17 00:36:21;;;;;;;5.20;1.00;;;;;;;13.38;84.99;101150.81;2015324;29;20068;-68
2022/07/17 00:37:27;;;;;;;2.05;0.98;;;;;;;13.40;85.28;101156.75;2022197;29;20075;-68
2022/07/17 00:38:30;;;;;;;1.50;0.90;;;;;;;13.38;85.20;101153.53;2022270;29;20445;-67
2022/07/17 00:39:37;;;;;;;3.47;0.77;;;;;;;13.38;85.44;101156.22;2008825;29;20037;-67
2022/07/17 00:40:43;;;;;;;1.75;0.90;;;;;;;13.39;85.56;101155.13;2004410;29;20049;-67
2022/07/17 00:41:49;;;;;;;1.92;0.90;;;;;;;13.39;85.36;101155.13;2022564;29;20394;-67
2022/07/17 00:42:54;;;;;;;3.72;0.90;;;;;;;13.42;85.53;101149.16;2015408;29;20128;-65
2022/07/17 00:44:07;;;;;;;2.47;0.73;;;;;;;13.41;85.39;101150.25;2016085;29;20934;-66
2022/07/17 00:45:11;;;;;;;3.63;1.40;;;;;;;13.43;85.36;101153.50;2029265;29;20052;-66
2022/07/17 00:46:19;;;;;;;1.27;0.70;;;;;;;13.44;85.64;101152.38;2027417;29;20060;-66
2022/07/17 00:47:25;;;;;;;5.07;1.10;;;;;;;13.43;85.83;101157.00;2028446;29;20060;-63
2022/07/17 00:48:31;;;;;;;1.33;0.90;;;;;;;13.44;85.74;101155.09;2022715;29;20052;-63
2022/07/17 00:49:33;;;;;;;1.92;1.00;;;;;;;13.42;86.01;101155.34;2022916;29;20060;-64
2022/07/17 00:50:40;;;;;;;2.97;0.90;;;;;;;13.41;86.12;101155.66;2023440;29;20063;-67
2022/07/17 00:51:45;;;;;;;2.97;1.00;;;;;;;13.44;86.17;101150.50;2031863;29;20079;-66
2022/07/17 00:52:53;;;;;;;3.83;1.00;;;;;;;13.44;86.30;101155.09;2038675;29;20059;-65
2022/07/17 00:53:58;;;;;;;2.40;0.90;;;;;;;13.47;86.12;101153.72;2026281;29;20052;-64
2022/07/17 00:55:04;;;;;;;2.50;0.90;;;;;;;13.47;86.26;101143.72;2023164;29;20052;-64
2022/07/17 00:56:11;;;;;;;4.07;0.80;;;;;;;13.48;86.04;101148.03;2024054;29;20056;-64
2022/07/17 00:57:18;;;;;;;2.67;1.00;;;;;;;13.48;86.05;101147.22;2023150;29;20726;-64
2022/07/17 00:58:25;;;;;;;1.52;0.93;;;;;;;13.49;86.09;101144.22;2030411;29;20044;-64
2022/07/17 00:59:32;;;;;;;3.83;1.00;;;;;;;13.49;86.24;101146.94;2030750;29;20052;-64
2022/07/17 01:00:42;;;;;;;2.75;1.00;;;;;;;13.51;86.40;101149.34;2022515;29;20044;-65
2022/07/17 01:01:51;;;;;;;0.88;0.70;;;;;;;13.51;86.26;101144.75;2023673;29;20061;-65
2022/07/17 01:02:58;;;;;;;3.47;0.80;;;;;;;13.48;86.11;101150.72;2022426;29;20045;-65
2022/07/17 01:04:01;;;;;;;1.63;0.98;;;;;;;13.50;86.18;101145.84;2015025;29;20064;-65
2022/07/17 01:05:07;;;;;;;2.60;1.08;;;;;;;13.52;86.23;101137.44;2022528;29;20063;-65
2022/07/17 01:06:10;;;;;;;2.05;0.95;;;;;;;13.52;86.11;101150.97;2022573;29;20060;-65
2022/07/17 01:07:16;;;;;;;4.22;1.20;;;;;;;13.51;86.12;101152.06;2016086;29;20457;-64
2022/07/17 01:08:21;;;;;;;3.08;0.80;;;;;;;13.50;86.19;101151.25;2016069;29;20044;-64
2022/07/17 01:09:25;;;;;;;1.48;1.00;;;;;;;13.49;86.11;101146.94;2015621;29;20044;-64
2022/07/17 01:10:31;;;;;;;2.70;0.90;;;;;;;13.47;86.44;101151.81;2026887;29;20044;-64
2022/07/17 01:11:34;;;;;;;3.08;0.82;;;;;;;13.51;86.27;101160.97;2031002;29;20064;-64
2022/07/17 01:12:41;;;;;;;3.17;0.80;;;;;;;13.51;86.36;101158.25;2022987;29;20037;-64
2022/07/17 01:13:45;;;;;;;2.22;0.77;;;;;;;13.51;86.23;101154.75;2022613;29;20033;-64
2022/07/17 01:14:52;;;;;;;1.48;0.80;;;;;;;13.50;86.37;101153.97;2022370;29;20060;-64
2022/07/17 01:15:54;;;;;;;1.58;0.82;;;;;;;13.50;86.42;101148.56;2016826;29;20631;-64
2022/07/17 01:16:56;;;;;;;1.95;1.13;;;;;;;13.52;86.56;101148.25;2022938;29;20051;-64
2022/07/17 01:17:59;;;;;;;2.13;0.85;;;;;;;13.54;86.23;101154.19;2022921;29;20064;-64
2022/07/17 01:19:01;;;;;;;5.65;1.35;;;;;;;13.52;86.39;101159.06;2030457;29;20468;-64
2022/07/17 01:20:07;;;;;;;0.93;0.75;;;;;;;13.53;86.37;101163.41;2030444;29;20044;-64
2022/07/17 01:21:12;;;;;;;2.80;1.15;;;;;;;13.52;86.29;101162.56;2023177;29;20052;-64
2022/07/17 01:22:16;;;;;;;3.80;1.10;;;;;;;13.50;86.26;101153.97;2030358;29;20044;-65
2022/07/17 01:23:22;;;;;;;2.63;1.23;;;;;;;13.54;86.46;101160.41;2022442;29;20071;-65
2022/07/17 01:24:27;;;;;;;3.90;0.90;;;;;;;13.56;86.03;101163.63;2024279;29;20037;-67
2022/07/17 01:25:35;;;;;;;1.70;0.80;;;;;;;13.52;86.19;101162.56;2026200;29;20036;-66
2022/07/17 01:26:44;;;;;;;4.22;1.08;;;;;;;13.52;86.30;101162.56;2023532;29;20079;-66
2022/07/17 01:27:49;;;;;;;2.25;1.00;;;;;;;13.53;86.65;101163.41;2023528;29;20048;-65
2022/07/17 01:28:54;;;;;;;1.95;0.93;;;;;;;13.52;86.44;101162.56;2014730;29;20067;-66
2022/07/17 01:29:57;;;;;;;4.85;0.80;;;;;;;13.54;86.31;101163.09;2016284;29;20041;-65
2022/07/17 01:31:04;;;;;;;3.50;1.08;;;;;;;13.56;86.40;101162.84;2023573;29;20504;-66
2022/07/17 01:32:09;;;;;;;3.83;0.93;;;;;;;13.54;86.52;101162.31;2023663;29;20048;-67
2022/07/17 01:33:11;;;;;;;2.15;0.90;;;;;;;13.56;86.06;101160.13;2009319;29;20068;-66
2022/07/17 01:34:18;;;;;;;2.65;0.80;;;;;;;13.55;86.19;101156.59;2016254;29;20056;-67
2022/07/17 01:35:28;;;;;;;2.38;0.77;;;;;;;13.55;86.24;101162.00;2031054;29;20056;-66
2022/07/17 01:36:31;;;;;;;1.15;0.60;;;;;;;13.56;86.29;101166.34;2023949;29;20056;-66
2022/07/17 01:37:35;;;;;;;2.70;0.90;;;;;;;13.55;86.45;101156.59;2016509;29;20033;-66
2022/07/17 01:38:41;;;;;;;2.03;0.90;;;;;;;13.58;86.34;101160.63;2017443;29;20041;-66
2022/07/17 01:39:54;;;;;;;1.88;0.80;;;;;;;13.57;86.31;101159.84;2024361;29;20060;-66
2022/07/17 01:40:56;;;;;;;3.25;0.82;;;;;;;13.56;86.46;101154.72;2031560;29;20040;-66
2022/07/17 01:41:59;;;;;;;4.22;0.85;;;;;;;13.57;86.35;101143.63;2031894;29;20044;-65
2022/07/17 01:43:04;;;;;;;1.90;0.75;;;;;;;13.57;86.38;101159.03;2038559;29;20054;-67
2022/07/17 01:44:09;;;;;;;3.67;0.90;;;;;;;13.58;86.30;101149.81;2038718;29;20058;-65
2022/07/17 01:45:18;;;;;;;3.08;0.80;;;;;;;13.59;86.31;101144.16;2038967;29;20419;-66
2022/07/17 01:46:21;;;;;;;8.02;0.77;;;;;;;13.61;86.36;101152.75;2039755;29;20058;-65
2022/07/17 01:47:26;;;;;;;4.20;0.70;;;;;;;13.62;86.11;101149.00;2038633;29;20063;-65
2022/07/17 01:48:31;;;;;;;2.63;0.80;;;;;;;13.63;86.32;101153.28;2038332;29;20545;-65
2022/07/17 01:49:34;;;;;;;2.63;0.70;;;;;;;13.63;86.35;101153.28;2039157;29;20032;-65
2022/07/17 01:50:40;;;;;;;4.05;0.90;;;;;;;13.65;86.18;101145.72;2039377;29;20036;-66
2022/07/17 01:51:50;;;;;;;1.75;0.82;;;;;;;13.70;85.81;101152.16;2036797;29;20063;-65
2022/07/17 01:52:56;;;;;;;3.42;0.88;;;;;;;13.70;86.05;101146.75;2032077;29;20067;-64
2022/07/17 01:53:58;;;;;;;4.40;0.77;;;;;;;13.70;86.01;101141.34;2032088;29;20515;-68
2022/07/17 01:55:04;;;;;;;1.95;0.80;;;;;;;13.68;85.94;101147.84;2025600;29;20534;-68
2022/07/17 01:56:07;;;;;;;2.70;0.70;;;;;;;13.68;85.88;101142.44;2031534;29;20059;-67
2022/07/17 01:57:11;;;;;;;1.65;0.90;;;;;;;13.67;86.03;101143.53;2030801;29;20733;-68
2022/07/17 01:58:15;;;;;;;2.25;0.70;;;;;;;13.67;86.00;101142.72;2030694;29;20060;-65
2022/07/17 01:59:19;;;;;;;1.55;1.00;;;;;;;13.70;86.07;101149.47;2032708;29;20056;-66
2022/07/17 02:00:25;;;;;;;0.70;0.70;;;;;;;13.68;86.17;101147.03;2033113;29;20049;-67
2022/07/17 02:01:30;;;;;;;3.65;0.80;;;;;;;13.63;86.23;101147.91;2009798;29;20045;-68
2022/07/17 02:02:39;;;;;;;3.42;0.85;;;;;;;13.66;86.32;101150.03;2013471;29;20136;-67
2022/07/17 02:03:44;;;;;;;3.03;0.90;;;;;;;13.66;86.38;101147.31;2024806;29;20055;-68
2022/07/17 02:04:53;;;;;;;2.67;0.70;;;;;;;13.62;86.08;101154.41;2011023;29;20046;-68
2022/07/17 02:05:58;;;;;;;1.30;0.80;;;;;;;13.63;86.24;101150.59;2012311;29;20305;-65
2022/07/17 02:07:03;;;;;;;0.77;0.68;;;;;;;13.64;86.31;101149.50;2024850;29;20053;-68
2022/07/17 02:08:06;;;;;;;2.70;0.80;;;;;;;13.65;86.08;101156.53;2025210;29;20440;-68
2022/07/17 02:09:10;;;;;;;2.20;0.82;;;;;;;13.62;86.02;101153.59;2017276;29;20041;-67
2022/07/17 02:10:15;;;;;;;1.67;0.93;;;;;;;13.61;85.97;101152.75;2013613;29;20529;-67
2022/07/17 02:11:18;;;;;;;3.92;0.80;;;;;;;13.60;86.09;101161.97;2025203;29;20056;-65
2022/07/17 02:12:26;;;;;;;1.63;0.80;;;;;;;13.62;86.08;101156.31;2032500;29;20040;-66
2022/07/17 02:13:31;;;;;;;1.42;0.55;;;;;;;13.63;85.87;101157.91;2033019;29;20079;-66
2022/07/17 02:14:34;;;;;;;1.77;0.70;;;;;;;13.62;85.98;101165.22;2024741;29;20057;-65
2022/07/17 02:15:40;;;;;;;2.10;0.85;;;;;;;13.60;85.92;101178.19;2017922;29;20037;-66
2022/07/17 02:16:41;;;;;;;3.08;0.80;;;;;;;13.62;86.17;101167.09;2016789;29;20060;-68
2022/07/17 02:17:45;;;;;;;2.65;0.75;;;;;;;13.58;86.23;101166.84;2017736;29;20053;-66
2022/07/17 02:18:48;;;;;;;3.03;0.80;;;;;;;13.59;86.06;101173.88;2032928;29;20048;-65
2022/07/17 02:19:55;;;;;;;1.73;0.80;;;;;;;13.59;86.16;101179.28;2033335;29;20047;-65
2022/07/17 02:20:56;;;;;;;3.95;1.20;;;;;;;13.56;86.31;101177.16;2024925;29;20041;-67
2022/07/17 02:22:02;;;;;;;2.38;1.00;;;;;;;13.57;86.20;101178.75;2025379;29;20325;-65
2022/07/17 02:23:08;;;;;;;3.40;0.90;;;;;;;13.57;86.04;101184.16;2033478;29;20071;-65
2022/07/17 02:24:13;;;;;;;3.20;0.95;;;;;;;13.60;86.04;101175.47;2033505;29;20044;-65
2022/07/17 02:25:20;;;;;;;2.53;0.80;;;;;;;13.59;86.14;101181.97;2032348;29;20048;-65
2022/07/17 02:26:26;;;;;;;2.55;0.82;;;;;;;13.59;86.10;101176.56;2025205;29;20059;-65
2022/07/17 02:27:34;;;;;;;2.92;0.98;;;;;;;13.57;85.74;101176.03;2032602;29;20060;-65
2022/07/17 02:28:39;;;;;;;3.90;0.80;;;;;;;13.58;86.19;101182.25;2032764;29;20051;-65
2022/07/17 02:29:43;;;;;;;4.47;0.80;;;;;;;13.58;86.01;101190.34;2032545;29;20048;-65
2022/07/17 02:30:50;;;;;;;3.13;0.82;;;;;;;13.50;86.00;101175.56;2033229;29;20330;-65
2022/07/17 02:31:53;;;;;;;1.52;0.63;;;;;;;13.54;85.96;101186.63;2032968;29;20079;-65
2022/07/17 02:32:57;;;;;;;4.72;1.83;;;;;;;13.54;86.13;101187.41;2032354;29;20846;-65
2022/07/17 02:34:00;;;;;;;2.50;0.82;;;;;;;13.58;86.12;101191.16;2032868;29;20055;-65
2022/07/17 02:35:04;;;;;;;3.40;0.90;;;;;;;13.58;85.77;101187.66;2024609;29;20061;-65
2022/07/17 02:36:07;;;;;;;2.90;0.90;;;;;;;13.58;85.87;101185.75;2024676;29;20107;-65
2022/07/17 02:37:12;;;;;;;1.20;0.57;;;;;;;13.56;85.71;101190.66;2025078;29;20064;-65
2022/07/17 02:38:18;;;;;;;5.15;0.90;;;;;;;13.58;85.64;101182.25;2025532;29;20068;-65
2022/07/17 02:39:21;;;;;;;4.28;0.90;;;;;;;13.58;85.52;101193.06;2032700;29;20067;-65
2022/07/17 02:40:28;;;;;;;1.17;0.80;;;;;;;13.55;85.50;101191.72;2033537;29;20052;-66
2022/07/17 02:41:30;;;;;;;1.02;0.70;;;;;;;13.56;85.51;101187.16;2033491;29;20055;-67
2022/07/17 02:42:37;;;;;;;2.03;0.77;;;;;;;13.56;85.51;101184.44;2030006;29;20060;-66
2022/07/17 02:43:39;;;;;;;2.25;0.82;;;;;;;13.53;85.52;101185.81;2026822;29;20040;-66
2022/07/17 02:44:46;;;;;;;1.95;0.80;;;;;;;13.55;85.23;101190.91;2040923;29;20472;-66
2022/07/17 02:45:49;;;;;;;2.17;1.00;;;;;;;13.49;85.12;101192.84;2032630;29;20052;-66
2022/07/17 02:46:52;;;;;;;1.02;0.90;;;;;;;13.53;85.13;101199.31;2033637;29;20060;-66
2022/07/17 02:47:59;;;;;;;2.70;0.60;;;;;;;13.54;85.28;101192.03;2040712;29;20051;-66
2022/07/17 02:49:02;;;;;;;2.80;1.00;;;;;;;13.55;85.07;101199.81;2032175;29;20523;-66
2022/07/17 02:50:12;;;;;;;2.08;0.85;;;;;;;13.55;85.34;101197.13;2018346;29;20057;-67
2022/07/17 02:51:17;;;;;;;1.52;0.70;;;;;;;13.56;84.96;101192.56;2026316;29;20056;-68
2022/07/17 02:52:23;;;;;;;2.03;0.70;;;;;;;13.52;84.83;101200.38;2017232;29;20049;-68
2022/07/17 02:53:30;;;;;;;2.30;0.80;;;;;;;13.52;85.08;101197.69;2019542;29;20068;-68
2022/07/17 02:54:38;;;;;;;4.65;0.85;;;;;;;13.51;84.85;101198.78;2031472;29;20218;-67
2022/07/17 02:55:40;;;;;;;3.92;0.88;;;;;;;13.53;84.87;101207.44;2031596;29;20052;-68
2022/07/17 02:56:44;;;;;;;2.40;0.65;;;;;;;13.50;84.97;101205.28;2031995;29;20075;-67
2022/07/17 02:57:51;;;;;;;4.38;0.80;;;;;;;13.54;84.77;101209.03;2010572;29;20045;-68
2022/07/17 02:58:58;;;;;;;1.60;0.70;;;;;;;13.51;84.55;101198.78;2010401;29;20913;-68
2022/07/17 03:00:01;;;;;;;1.65;0.65;;;;;;;13.56;84.68;101198.75;2017700;29;20052;-67
2022/07/17 03:01:08;;;;;;;1.52;1.42;;;;;;;13.55;84.41;101199.81;2017521;29;20060;-68
2022/07/17 03:02:11;;;;;;;3.20;1.00;;;;;;;13.48;84.39;101193.94;2009902;29;20064;-68
2022/07/17 03:03:14;;;;;;;3.40;0.70;;;;;;;13.49;84.44;101211.75;2010535;29;20070;-68
2022/07/17 03:04:16;;;;;;;3.95;1.25;;;;;;;13.47;84.62;101207.75;2024742;29;20060;-68
2022/07/17 03:05:22;;;;;;;1.45;0.63;;;;;;;13.47;84.65;101213.97;2016815;29;20513;-68
2022/07/17 03:06:25;;;;;;;1.42;0.80;;;;;;;13.54;84.37;101205.53;2010990;29;20068;-68
2022/07/17 03:07:29;;;;;;;4.53;0.82;;;;;;;13.53;84.28;101207.44;2010006;29;20069;-68
2022/07/17 03:08:32;;;;;;;3.22;0.73;;;;;;;13.53;84.30;101212.03;2020416;29;20547;-68
2022/07/17 03:09:36;;;;;;;3.22;1.00;;;;;;;13.56;84.09;101212.28;2017123;29;20055;-68
2022/07/17 03:10:43;;;;;;;2.75;0.77;;;;;;;13.61;84.10;101214.91;2009959;29;20066;-68
2022/07/17 03:11:48;;;;;;;1.58;0.70;;;;;;;13.65;84.01;101210.56;2024752;29;20049;-69
2022/07/17 03:12:51;;;;;;;2.35;0.70;;;;;;;13.66;83.96;101212.19;2025919;29;20481;-68
2022/07/17 03:13:53;;;;;;;2.63;0.80;;;;;;;13.69;83.67;101213.50;2033408;29;20044;-68
2022/07/17 03:14:59;;;;;;;2.78;1.00;;;;;;;13.74;83.55;101212.66;2033367;29;20044;-67
2022/07/17 03:16:08;;;;;;;1.85;0.90;;;;;;;13.79;83.59;101205.31;2032928;29;20062;-68
2022/07/17 03:17:16;;;;;;;3.20;0.80;;;;;;;13.80;83.18;101220.44;2033364;29;20032;-67
2022/07/17 03:18:18;;;;;;;1.92;0.70;;;;;;;13.87;83.00;101212.81;2025902;29;20040;-68
2022/07/17 03:19:21;;;;;;;2.22;0.95;;;;;;;13.94;83.05;101212.47;2029124;29;20063;-67
2022/07/17 03:20:24;;;;;;;3.63;0.80;;;;;;;13.98;82.52;101212.72;2032802;29;20071;-67
2022/07/17 03:21:28;;;;;;;3.60;0.70;;;;;;;14.02;82.54;101214.56;2024932;29;20041;-68
2022/07/17 03:22:33;;;;;;;1.83;0.90;;;;;;;14.09;82.02;101220.44;2024974;29;20465;-68
2022/07/17 03:23:38;;;;;;;3.20;0.70;;;;;;;14.15;81.68;101223.88;2033353;29;20058;-67
2022/07/17 03:24:43;;;;;;;3.80;0.70;;;;;;;14.20;81.47;101221.13;2032504;29;20036;-67
2022/07/17 03:25:48;;;;;;;3.03;0.70;;;;;;;14.30;81.16;101220.22;2032663;29;20660;-67
2022/07/17 03:26:51;;;;;;;2.40;0.80;;;;;;;14.33;80.82;101230.47;2032558;29;20039;-67
2022/07/17 03:27:53;;;;;;;2.47;0.60;;;;;;;14.37;80.15;101226.91;2024756;29;20504;-67
2022/07/17 03:28:57;;;;;;;2.13;0.60;;;;;;;14.47;80.30;101225.16;2032527;29;20048;-68
2022/07/17 03:30:05;;;;;;;2.25;0.50;;;;;;;14.55;79.78;101225.38;2032269;29;20122;-68
2022/07/17 03:31:11;;;;;;;1.45;0.63;;;;;;;14.68;79.61;101233.91;2025801;29;20037;-67
2022/07/17 03:32:21;;;;;;;2.53;0.75;;;;;;;14.73;79.33;101229.22;2010641;29;20084;-68
2022/07/17 03:33:27;;;;;;;1.27;0.70;;;;;;;14.81;78.72;101236.69;2011086;29;20046;-68
2022/07/17 03:34:28;;;;;;;5.18;0.90;;;;;;;14.92;78.37;101228.47;2025258;29;20037;-67
2022/07/17 03:35:31;;;;;;;2.05;0.85;;;;;;;14.97;78.17;101225.66;2024276;29;20067;-68
2022/07/17 03:36:35;;;;;;;2.20;0.70;;;;;;;14.99;77.67;101226.19;2024263;29;20052;-68
2022/07/17 03:37:39;;;;;;;5.53;0.90;;;;;;;15.12;77.57;101230.06;2032400;29;20697;-68
2022/07/17 03:38:44;;;;;;;1.33;0.60;;;;;;;15.20;77.37;101226.72;2017855;29;20041;-66
2022/07/17 03:39:51;;;;;;;0.93;0.63;;;;;;;15.32;76.77;101231.66;2025574;29;20048;-67
2022/07/17 03:40:58;;;;;;;3.38;0.70;;;;;;;15.39;76.92;101229.41;2024265;29;20071;-67
2022/07/17 03:42:00;;;;;;;3.30;0.88;;;;;;;15.49;76.41;101229.25;2019058;29;20045;-66
2022/07/17 03:43:06;;;;;;;4.20;1.35;;;;;;;15.58;75.79;101230.19;2032432;29;20067;-66
2022/07/17 03:44:10;;;;;;;0.85;0.63;;;;;;;15.63;75.50;101219.25;2040203;29;20578;-66
2022/07/17 03:45:14;;;;;;;1.58;0.70;;;;;;;15.76;75.45;101228.56;2032180;29;20052;-66
2022/07/17 03:46:22;;;;;;;1.25;0.60;;;;;;;15.86;74.45;101231.13;2022554;29;20036;-67
2022/07/17 03:47:29;;;;;;;3.15;0.80;;;;;;;15.92;74.51;101231.81;2024684;29;20048;-67
2022/07/17 03:48:31;;;;;;;2.35;0.70;;;;;;;16.04;74.42;101234.06;2017181;29;20052;-67
2022/07/17 03:49:35;;;;;;;1.90;0.60;;;;;;;16.13;74.00;101237.69;2017009;29;20061;-66
2022/07/17 03:50:38;;;;;;;1.10;0.52;;;;;;;16.13;73.84;101237.69;2016468;29;20056;-67
2022/07/17 03:51:41;;;;;;;2.63;0.70;;;;;;;16.22;73.69;101244.03;2031686;29;20066;-67
2022/07/17 03:52:43;;;;;;;1.05;0.65;;;;;;;16.31;73.04;101244.97;2040199;29;20040;-67
2022/07/17 03:53:47;;;;;;;1.10;0.70;;;;;;;16.35;73.07;101243.25;2032625;29;20036;-68
2022/07/17 03:54:50;;;;;;;1.52;0.70;;;;;;;16.45;72.59;101240.34;2039494;29;20058;-67
2022/07/17 03:55:54;;;;;;;1.20;0.80;;;;;;;16.56;72.11;101246.38;2025011;29;20068;-67
2022/07/17 03:57:01;;;;;;;3.00;0.70;;;;;;;16.60;71.76;101246.56;2024465;29;20044;-68
2022/07/17 03:58:05;;;;;;;2.72;0.60;;;;;;;16.69;71.45;101248.28;2017360;29;20492;-67
2022/07/17 03:59:08;;;;;;;2.35;0.70;;;;;;;16.78;71.17;101247.63;2008985;29;20070;-67
2022/07/17 04:00:17;;;;;;;0.88;0.70;;;;;;;16.78;70.59;101245.69;2009318;29;20061;-67
2022/07/17 04:01:19;;;;;;;6.35;0.93;;;;;;;16.87;70.48;101252.03;2017089;29;20822;-67
2022/07/17 04:02:23;;;;;;;2.20;0.70;;;;;;;16.95;69.88;101247.78;2024541;29;20045;-67
2022/07/17 04:03:26;;;;;;;2.75;0.90;;;;;;;17.01;69.70;101257.44;2024532;29;20083;-67
2022/07/17 04:04:32;;;;;;;3.10;0.70;;;;;;;17.08;69.64;101251.56;2024012;29;20048;-67
2022/07/17 04:05:36;;;;;;;2.72;0.80;;;;;;;17.16;69.51;101240.00;2024495;29;20104;-67
2022/07/17 04:06:39;;;;;;;1.70;0.70;;;;;;;17.24;69.16;101244.69;2024308;29;20049;-67
2022/07/17 04:07:44;;;;;;;4.55;1.50;;;;;;;17.32;69.40;101243.97;2024617;29;20548;-67
2022/07/17 04:08:49;;;;;;;1.70;0.80;;;;;;;17.40;69.11;101247.06;2024493;29;20043;-67
2022/07/17 04:09:55;;;;;;;2.75;0.70;;;;;;;17.46;68.83;101248.56;2024429;29;20414;-67
2022/07/17 04:11:01;;;;;;;4.75;0.90;;;;;;;17.56;68.53;101261.94;2024325;29;20044;-67
2022/07/17 04:12:06;;;;;;;4.32;0.80;;;;;;;17.61;68.45;101261.78;2024516;29;20044;-67
2022/07/17 04:13:10;;;;;;;1.33;0.60;;;;;;;17.66;68.15;101258.16;2024138;29;20052;-67
2022/07/17 04:14:12;;;;;;;1.98;0.73;;;;;;;17.75;67.77;101259.81;2027990;29;20055;-67
2022/07/17 04:15:49;;;;;;;1.55;0.68;;;;;;;17.81;67.16;101255.91;2024060;29;20469;-67
2022/07/17 04:16:41;;;;;;;2.42;0.80;;;;;;;17.93;67.05;101259.94;2024825;29;20485;-67
2022/07/17 04:17:46;;;;;;;2.35;0.60;;;;;;;17.99;66.83;101261.44;2025178;29;20052;-67
2022/07/17 04:18:53;;;;;;;0.68;0.57;;;;;;;18.02;66.61;101258.09;2024969;29;20052;-67
2022/07/17 04:19:58;;;;;;;3.30;0.60;;;;;;;18.11;66.12;101260.88;2024269;29;20057;-67
2022/07/17 04:21:05;;;;;;;3.50;0.68;;;;;;;18.17;65.80;101260.41;2016557;29;20564;-67
2022/07/17 04:22:09;;;;;;;1.77;0.80;;;;;;;18.24;65.38;101266.19;2018347;29;20160;-67
2022/07/17 04:23:13;;;;;;;1.65;0.73;;;;;;;18.32;65.53;101266.59;2024048;29;20052;-68
2022/07/17 04:24:17;;;;;;;2.63;0.75;;;;;;;18.39;65.42;101266.94;2016737;29;20584;-67
2022/07/17 04:25:21;;;;;;;2.58;0.70;;;;;;;18.44;65.32;101264.88;2024101;29;20064;-67
2022/07/17 04:26:30;;;;;;;2.53;0.90;;;;;;;18.52;65.30;101266.00;2025280;29;20056;-67
2022/07/17 04:27:34;;;;;;;2.00;0.80;;;;;;;18.59;65.15;101271.78;2024285;29;20048;-67
2022/07/17 04:28:37;;;;;;;1.33;0.63;;;;;;;18.62;64.45;101270.38;2024634;29;20056;-67
2022/07/17 04:29:40;;;;;;;1.60;0.63;;;;;;;18.66;64.63;101274.88;2024124;29;20401;-67
2022/07/17 04:30:43;;;;;;;1.65;0.70;;;;;;;18.69;64.40;101267.97;2022530;29;20171;-64
2022/07/17 04:31:46;;;;;;;1.80;0.68;;;;;;;18.69;63.88;101276.16;2020659;29;20045;-65
2022/07/17 04:32:50;;;;;;;3.65;0.70;;;;;;;18.67;64.05;101272.97;2012308;29;20548;-65
2022/07/17 04:33:55;;;;;;;1.83;0.75;;;;;;;18.70;64.40;101277.78;2012519;29;20044;-65
2022/07/17 04:34:58;;;;;;;2.53;0.80;;;;;;;18.72;64.14;101276.34;2022548;29;20056;-65
2022/07/17 04:36:03;;;;;;;3.28;0.68;;;;;;;18.73;64.45;101277.97;2004945;29;20410;-65
2022/07/17 04:37:05;;;;;;;3.05;0.70;;;;;;;18.75;64.57;101278.44;2000173;29;20396;-65
2022/07/17 04:38:10;;;;;;;1.65;0.70;;;;;;;18.79;64.39;101275.09;2024182;29;20056;-65
2022/07/17 04:39:14;;;;;;;2.00;0.57;;;;;;;18.78;64.23;101276.22;2024992;29;20051;-65
2022/07/17 04:40:17;;;;;;;1.75;0.70;;;;;;;18.84;63.90;101272.22;2012857;29;20223;-65
2022/07/17 04:41:22;;;;;;;2.22;0.75;;;;;;;18.85;63.84;101273.81;2017062;29;20056;-66
2022/07/17 04:42:27;;;;;;;6.38;0.68;;;;;;;18.95;63.51;101279.00;2019594;29;20053;-65
2022/07/17 04:43:32;;;;;;;2.63;0.68;;;;;;;18.99;63.45;101274.50;2016738;29;20033;-65
2022/07/17 04:44:38;;;;;;;0.90;0.60;;;;;;;19.04;63.52;101274.38;2016533;29;20045;-66
2022/07/17 04:45:43;;;;;;;4.03;1.10;;;;;;;19.11;62.83;101276.63;1993884;29;20439;-66
2022/07/17 04:46:48;;;;;;;2.50;0.73;;;;;;;19.15;63.05;101274.84;1997007;29;20059;-65
2022/07/17 04:47:56;;;;;;;1.23;0.60;;;;;;;19.25;62.75;101276.47;2016361;29;20053;-65
2022/07/17 04:49:03;;;;;;;0.90;0.70;;;;;;;19.31;62.75;101286.91;2030036;29;20059;-66
2022/07/17 04:50:07;;;;;;;3.35;0.60;;;;;;;19.37;62.96;101276.63;2025689;29;20414;-66
2022/07/17 04:51:12;;;;;;;1.45;0.60;;;;;;;19.38;62.98;101275.50;2021511;29;20389;-66
2022/07/17 04:52:18;;;;;;;3.90;0.60;;;;;;;19.45;62.90;101275.81;2009292;29;20077;-66
2022/07/17 04:53:22;;;;;;;1.33;0.60;;;;;;;19.52;62.31;101281.63;2011179;29;20050;-72
2022/07/17 04:54:25;;;;;;;2.65;0.68;;;;;;;19.64;62.61;101279.06;2021623;29;20083;-68
2022/07/17 04:55:29;;;;;;;3.33;0.60;;;;;;;19.77;62.85;101281.97;2006374;29;20572;-70
2022/07/17 04:56:33;;;;;;;2.35;0.52;;;;;;;19.83;62.67;101281.47;2007735;29;20048;-69
2022/07/17 04:57:39;;;;;;;2.00;0.60;;;;;;;19.85;62.02;101290.13;2016110;29;20045;-69
2022/07/17 04:58:41;;;;;;;1.00;0.40;;;;;;;19.90;62.02;101286.44;2021366;29;20060;-69
2022/07/17 04:59:43;;;;;;;6.60;0.70;;;;;;;20.00;61.72;101291.53;2008566;29;20041;-69
2022/07/17 05:00:44;;;;;;;1.67;0.60;;;;;;;20.05;61.92;101288.66;2000408;29;20037;-69
2022/07/17 05:01:46;;;;;;;2.38;0.80;;;;;;;20.12;62.12;101288.94;2017130;29;20033;-69